createdAt,value
2022-08-23T00:00:00.000Z,18.81
2022-08-23T00:15:00.000Z,18.64
2022-08-23T00:30:00.000Z,18.45
2022-08-23T00:45:00.000Z,18.35
2022-08-23T01:00:00.000Z,18.33
2022-08-23T01:15:00.000Z,18.49
2022-08-23T01:30:00.000Z,18.49
2022-08-23T01:45:00.000Z,18.49
2022-08-23T02:00:00.000Z,18.35
2022-08-23T02:15:00.000Z,18.16
2022-08-23T02:30:00.000Z,18.11
2022-08-23T02:45:00.000Z,17.94
2022-08-23T03:00:00.000Z,18.05
2022-08-23T03:15:00.000Z,18
2022-08-23T03:30:00.000Z,17.6
2022-08-23T03:45:00.000Z,17.64
2022-08-23T04:00:00.000Z,17.73
2022-08-23T04:15:00.000Z,17.9
2022-08-23T04:30:00.000Z,17.94
2022-08-23T04:45:00.000Z,18.01
2022-08-23T05:00:00.000Z,18.18
2022-08-23T05:15:00.000Z,18.34
2022-08-23T05:30:00.000Z,18.5
2022-08-23T05:45:00.000Z,18.78
2022-08-23T06:00:00.000Z,19.51
2022-08-23T06:15:00.000Z,20.13
2022-08-23T06:30:00.000Z,20.89
2022-08-23T06:45:00.000Z,21.95
2022-08-23T07:00:00.000Z,22.82
2022-08-23T07:15:00.000Z,22.85
2022-08-23T07:30:00.000Z,24.5
2022-08-23T07:45:00.000Z,25.75
2022-08-23T08:00:00.000Z,26.08
2022-08-23T08:15:00.000Z,26.92
2022-08-23T08:30:00.000Z,27.06
2022-08-23T08:45:00.000Z,27.33
2022-08-23T09:00:00.000Z,26.25
2022-08-23T09:15:00.000Z,25.83
2022-08-23T09:30:00.000Z,25.44
2022-08-23T09:45:00.000Z,25.85
2022-08-23T10:00:00.000Z,26.5
2022-08-23T10:15:00.000Z,26.24
2022-08-23T10:30:00.000Z,26.43
2022-08-23T10:45:00.000Z,26.68
2022-08-23T11:00:00.000Z,26.08
2022-08-23T11:15:00.000Z,25.48
2022-08-23T11:30:00.000Z,26.21
2022-08-23T11:45:00.000Z,27.04
2022-08-23T12:00:00.000Z,27.52
2022-08-23T12:15:00.000Z,27.13
2022-08-23T12:30:00.000Z,26.88
2022-08-23T12:45:00.000Z,27.17
2022-08-23T13:00:00.000Z,27.71
2022-08-23T13:15:00.000Z,27.87
2022-08-23T13:30:00.000Z,28.66
2022-08-23T13:45:00.000Z,27.98
2022-08-23T14:00:00.000Z,27.95
2022-08-23T14:15:00.000Z,27.8
2022-08-23T14:45:00.000Z,27.59
2022-08-23T14:45:00.000Z,27.23
2022-08-23T15:00:00.000Z,27.01
2022-08-23T15:15:00.000Z,27.09
2022-08-23T15:30:00.000Z,26.94
2022-08-23T15:45:00.000Z,26.92
2022-08-23T16:00:00.000Z,26.95
2022-08-23T16:15:00.000Z,27.15
2022-08-23T16:30:00.000Z,27.11
2022-08-23T16:45:00.000Z,26.97
2022-08-23T17:00:00.000Z,26.67
2022-08-23T17:15:00.000Z,25.89
2022-08-23T17:30:00.000Z,24.64
2022-08-23T17:45:00.000Z,24.09
2022-08-23T18:00:00.000Z,23.75
2022-08-23T18:15:00.000Z,23.44
2022-08-23T18:30:00.000Z,23.3
2022-08-23T18:45:00.000Z,23.02
2022-08-23T19:00:00.000Z,22.67
2022-08-23T19:15:00.000Z,22.35
2022-08-23T19:30:00.000Z,21.89
2022-08-23T19:45:00.000Z,21.95
2022-08-23T20:00:00.000Z,21.56
2022-08-23T20:15:00.000Z,21.23
2022-08-23T20:30:00.000Z,21.18
2022-08-23T20:45:00.000Z,21.37
2022-08-23T21:00:00.000Z,21.46
2022-08-23T21:15:00.000Z,21.15
2022-08-23T21:30:00.000Z,20.99
2022-08-23T21:45:00.000Z,20.95
2022-08-23T22:00:00.000Z,20.63
2022-08-23T22:15:00.000Z,20.66
2022-08-23T22:30:00.000Z,20.43
2022-08-23T22:45:00.000Z,20.3
2022-08-23T23:00:00.000Z,20.22
2022-08-23T23:15:00.000Z,19.94
2022-08-23T23:30:00.000Z,19.38
2022-08-23T23:45:00.000Z,19.38
